sensor_id;sensor_type;location;lat;lon;timestamp;P1;durP1;ratioP1;P2;durP2;ratioP2
74465;SDS011;62916;50.044;15.938;2023-03-21T00:01:50;3.00;;;2.70;;
74465;SDS011;62916;50.044;15.938;2023-03-21T00:04:21;3.40;;;2.90;;
74465;SDS011;62916;50.044;15.938;2023-03-21T00:06:56;3.70;;;2.90;;
74465;SDS011;62916;50.044;15.938;2023-03-21T00:09:27;3.00;;;2.50;;
74465;SDS011;62916;50.044;15.938;2023-03-21T00:11:58;3.30;;;2.80;;
74465;SDS011;62916;50.044;15.938;2023-03-21T00:14:29;3.10;;;2.80;;
74465;SDS011;62916;50.044;15.938;2023-03-21T00:17:00;4.10;;;3.80;;
74465;SDS011;62916;50.044;15.938;2023-03-21T00:19:31;3.40;;;2.90;;
74465;SDS011;62916;50.044;15.938;2023-03-21T00:22:05;3.10;;;2.80;;
74465;SDS011;62916;50.044;15.938;2023-03-21T00:24:36;4.20;;;3.80;;
74465;SDS011;62916;50.044;15.938;2023-03-21T00:27:07;2.60;;;2.40;;
74465;SDS011;62916;50.044;15.938;2023-03-21T00:29:58;2.90;;;2.60;;
74465;SDS011;62916;50.044;15.938;2023-03-21T00:32:28;3.20;;;2.80;;
74465;SDS011;62916;50.044;15.938;2023-03-21T00:35:07;3.10;;;2.80;;
74465;SDS011;62916;50.044;15.938;2023-03-21T00:40:27;3.70;;;3.00;;
74465;SDS011;62916;50.044;15.938;2023-03-21T00:43:07;3.20;;;2.90;;
74465;SDS011;62916;50.044;15.938;2023-03-21T00:45:38;3.00;;;2.70;;
74465;SDS011;62916;50.044;15.938;2023-03-21T00:48:09;3.20;;;2.80;;
74465;SDS011;62916;50.044;15.938;2023-03-21T00:50:40;3.50;;;2.70;;
74465;SDS011;62916;50.044;15.938;2023-03-21T00:53:13;3.50;;;2.90;;
74465;SDS011;62916;50.044;15.938;2023-03-21T00:55:44;2.90;;;2.60;;
74465;SDS011;62916;50.044;15.938;2023-03-21T00:58:16;3.20;;;2.90;;
74465;SDS011;62916;50.044;15.938;2023-03-21T01:00:47;3.30;;;2.70;;
74465;SDS011;62916;50.044;15.938;2023-03-21T01:03:18;3.10;;;2.60;;
74465;SDS011;62916;50.044;15.938;2023-03-21T01:05:52;4.30;;;2.90;;
74465;SDS011;62916;50.044;15.938;2023-03-21T01:08:33;3.10;;;2.70;;
74465;SDS011;62916;50.044;15.938;2023-03-21T01:11:19;3.70;;;2.90;;
74465;SDS011;62916;50.044;15.938;2023-03-21T01:13:52;3.10;;;2.70;;
74465;SDS011;62916;50.044;15.938;2023-03-21T01:16:41;3.90;;;2.80;;
74465;SDS011;62916;50.044;15.938;2023-03-21T01:19:13;3.00;;;2.60;;
74465;SDS011;62916;50.044;15.938;2023-03-21T01:22:06;4.00;;;3.20;;
74465;SDS011;62916;50.044;15.938;2023-03-21T01:24:37;3.90;;;3.40;;
74465;SDS011;62916;50.044;15.938;2023-03-21T01:27:21;3.00;;;2.70;;
74465;SDS011;62916;50.044;15.938;2023-03-21T01:29:52;4.70;;;3.30;;
74465;SDS011;62916;50.044;15.938;2023-03-21T01:32:25;4.20;;;2.90;;
74465;SDS011;62916;50.044;15.938;2023-03-21T01:34:56;3.50;;;3.00;;
74465;SDS011;62916;50.044;15.938;2023-03-21T01:37:27;3.90;;;3.60;;
74465;SDS011;62916;50.044;15.938;2023-03-21T01:39:59;2.90;;;2.70;;
74465;SDS011;62916;50.044;15.938;2023-03-21T01:42:31;3.10;;;2.80;;
74465;SDS011;62916;50.044;15.938;2023-03-21T01:45:04;3.20;;;2.90;;
74465;SDS011;62916;50.044;15.938;2023-03-21T01:47:49;3.60;;;3.30;;
74465;SDS011;62916;50.044;15.938;2023-03-21T01:50:20;3.70;;;2.80;;
74465;SDS011;62916;50.044;15.938;2023-03-21T01:52:52;3.20;;;2.70;;
74465;SDS011;62916;50.044;15.938;2023-03-21T01:55:23;2.80;;;2.50;;
74465;SDS011;62916;50.044;15.938;2023-03-21T01:57:54;3.30;;;2.50;;
74465;SDS011;62916;50.044;15.938;2023-03-21T02:00:33;3.00;;;2.50;;
74465;SDS011;62916;50.044;15.938;2023-03-21T02:03:07;3.40;;;2.90;;
74465;SDS011;62916;50.044;15.938;2023-03-21T02:06:00;3.60;;;3.20;;
74465;SDS011;62916;50.044;15.938;2023-03-21T02:08:34;3.60;;;2.40;;
74465;SDS011;62916;50.044;15.938;2023-03-21T02:11:07;3.30;;;2.80;;
74465;SDS011;62916;50.044;15.938;2023-03-21T02:13:38;4.20;;;2.70;;
74465;SDS011;62916;50.044;15.938;2023-03-21T02:16:10;3.10;;;2.70;;
74465;SDS011;62916;50.044;15.938;2023-03-21T02:18:47;3.00;;;2.70;;
74465;SDS011;62916;50.044;15.938;2023-03-21T02:21:33;3.10;;;2.80;;
74465;SDS011;62916;50.044;15.938;2023-03-21T02:24:40;2.50;;;2.30;;
74465;SDS011;62916;50.044;15.938;2023-03-21T02:27:49;2.50;;;2.30;;
74465;SDS011;62916;50.044;15.938;2023-03-21T02:36:52;2.80;;;2.50;;
74465;SDS011;62916;50.044;15.938;2023-03-21T02:39:33;4.00;;;2.90;;
74465;SDS011;62916;50.044;15.938;2023-03-21T02:42:14;3.20;;;2.60;;
74465;SDS011;62916;50.044;15.938;2023-03-21T02:44:50;3.00;;;2.40;;
74465;SDS011;62916;50.044;15.938;2023-03-21T02:47:30;2.90;;;2.50;;
74465;SDS011;62916;50.044;15.938;2023-03-21T02:50:09;3.00;;;2.80;;
74465;SDS011;62916;50.044;15.938;2023-03-21T02:52:44;4.30;;;3.00;;
74465;SDS011;62916;50.044;15.938;2023-03-21T02:55:18;3.20;;;2.30;;
74465;SDS011;62916;50.044;15.938;2023-03-21T02:57:54;2.90;;;2.60;;
74465;SDS011;62916;50.044;15.938;2023-03-21T03:00:39;2.90;;;2.60;;
74465;SDS011;62916;50.044;15.938;2023-03-21T03:03:11;2.90;;;2.60;;
74465;SDS011;62916;50.044;15.938;2023-03-21T03:05:58;2.60;;;2.40;;
74465;SDS011;62916;50.044;15.938;2023-03-21T03:08:35;2.90;;;2.60;;
74465;SDS011;62916;50.044;15.938;2023-03-21T03:11:28;2.80;;;2.50;;
74465;SDS011;62916;50.044;15.938;2023-03-21T03:14:06;2.90;;;2.60;;
74465;SDS011;62916;50.044;15.938;2023-03-21T03:17:19;3.40;;;2.70;;
74465;SDS011;62916;50.044;15.938;2023-03-21T03:20:03;3.20;;;2.70;;
74465;SDS011;62916;50.044;15.938;2023-03-21T03:22:47;2.50;;;2.30;;
74465;SDS011;62916;50.044;15.938;2023-03-21T03:25:27;2.50;;;2.10;;
74465;SDS011;62916;50.044;15.938;2023-03-21T03:28:10;2.80;;;2.50;;
74465;SDS011;62916;50.044;15.938;2023-03-21T03:30:44;3.10;;;2.80;;
74465;SDS011;62916;50.044;15.938;2023-03-21T03:37:16;3.80;;;2.70;;
74465;SDS011;62916;50.044;15.938;2023-03-21T03:39:54;2.60;;;2.30;;
74465;SDS011;62916;50.044;15.938;2023-03-21T03:42:33;2.60;;;2.40;;
74465;SDS011;62916;50.044;15.938;2023-03-21T03:45:09;2.80;;;2.30;;
74465;SDS011;62916;50.044;15.938;2023-03-21T03:47:41;2.80;;;2.30;;
74465;SDS011;62916;50.044;15.938;2023-03-21T03:50:25;2.80;;;2.60;;
74465;SDS011;62916;50.044;15.938;2023-03-21T03:53:01;2.30;;;2.10;;
74465;SDS011;62916;50.044;15.938;2023-03-21T03:55:45;2.90;;;2.70;;
74465;SDS011;62916;50.044;15.938;2023-03-21T03:58:18;2.70;;;2.50;;
74465;SDS011;62916;50.044;15.938;2023-03-21T04:01:00;2.90;;;2.60;;
74465;SDS011;62916;50.044;15.938;2023-03-21T04:03:30;2.80;;;2.40;;
74465;SDS011;62916;50.044;15.938;2023-03-21T04:06:15;2.50;;;2.30;;
74465;SDS011;62916;50.044;15.938;2023-03-21T04:08:48;3.10;;;2.80;;
74465;SDS011;62916;50.044;15.938;2023-03-21T04:11:19;3.10;;;2.80;;
74465;SDS011;62916;50.044;15.938;2023-03-21T04:13:50;2.90;;;2.70;;
74465;SDS011;62916;50.044;15.938;2023-03-21T04:16:21;2.80;;;2.50;;
74465;SDS011;62916;50.044;15.938;2023-03-21T04:18:52;2.80;;;2.50;;
74465;SDS011;62916;50.044;15.938;2023-03-21T04:21:22;2.70;;;2.50;;
74465;SDS011;62916;50.044;15.938;2023-03-21T04:23:54;2.40;;;2.20;;
74465;SDS011;62916;50.044;15.938;2023-03-21T04:26:25;2.70;;;2.50;;
74465;SDS011;62916;50.044;15.938;2023-03-21T04:28:59;2.70;;;2.40;;
74465;SDS011;62916;50.044;15.938;2023-03-21T04:31:31;3.00;;;2.20;;
74465;SDS011;62916;50.044;15.938;2023-03-21T04:34:03;2.90;;;2.60;;
74465;SDS011;62916;50.044;15.938;2023-03-21T04:36:36;2.50;;;2.30;;
74465;SDS011;62916;50.044;15.938;2023-03-21T04:39:11;2.40;;;2.20;;
74465;SDS011;62916;50.044;15.938;2023-03-21T04:41:43;2.80;;;2.10;;
74465;SDS011;62916;50.044;15.938;2023-03-21T04:44:15;2.80;;;2.20;;
74465;SDS011;62916;50.044;15.938;2023-03-21T04:46:46;4.50;;;3.30;;
74465;SDS011;62916;50.044;15.938;2023-03-21T04:49:17;3.20;;;2.90;;
74465;SDS011;62916;50.044;15.938;2023-03-21T04:51:48;3.80;;;2.70;;
74465;SDS011;62916;50.044;15.938;2023-03-21T04:54:18;3.90;;;2.60;;
74465;SDS011;62916;50.044;15.938;2023-03-21T04:56:49;2.50;;;2.30;;
74465;SDS011;62916;50.044;15.938;2023-03-21T04:59:20;2.80;;;2.60;;
74465;SDS011;62916;50.044;15.938;2023-03-21T05:01:51;4.70;;;2.70;;
74465;SDS011;62916;50.044;15.938;2023-03-21T05:04:23;4.30;;;2.80;;
74465;SDS011;62916;50.044;15.938;2023-03-21T05:06:55;2.70;;;2.40;;
74465;SDS011;62916;50.044;15.938;2023-03-21T05:09:26;5.80;;;2.50;;
74465;SDS011;62916;50.044;15.938;2023-03-21T05:11:56;10.30;;;2.70;;
74465;SDS011;62916;50.044;15.938;2023-03-21T05:14:27;13.60;;;3.80;;
74465;SDS011;62916;50.044;15.938;2023-03-21T05:16:58;10.60;;;3.30;;
74465;SDS011;62916;50.044;15.938;2023-03-21T05:22:05;10.00;;;3.30;;
74465;SDS011;62916;50.044;15.938;2023-03-21T05:24:37;10.70;;;3.10;;
74465;SDS011;62916;50.044;15.938;2023-03-21T05:27:08;6.60;;;3.00;;
74465;SDS011;62916;50.044;15.938;2023-03-21T05:29:40;10.50;;;3.50;;
74465;SDS011;62916;50.044;15.938;2023-03-21T05:32:11;11.60;;;3.00;;
74465;SDS011;62916;50.044;15.938;2023-03-21T05:34:42;15.70;;;4.20;;
74465;SDS011;62916;50.044;15.938;2023-03-21T05:37:13;5.50;;;2.60;;
74465;SDS011;62916;50.044;15.938;2023-03-21T05:39:44;7.10;;;3.10;;
74465;SDS011;62916;50.044;15.938;2023-03-21T05:42:14;8.70;;;3.20;;
74465;SDS011;62916;50.044;15.938;2023-03-21T05:44:46;8.20;;;2.80;;
74465;SDS011;62916;50.044;15.938;2023-03-21T05:47:17;5.50;;;2.50;;
74465;SDS011;62916;50.044;15.938;2023-03-21T05:49:48;10.90;;;3.40;;
74465;SDS011;62916;50.044;15.938;2023-03-21T05:52:18;4.80;;;2.80;;
74465;SDS011;62916;50.044;15.938;2023-03-21T05:54:49;5.90;;;2.80;;
74465;SDS011;62916;50.044;15.938;2023-03-21T05:57:20;5.30;;;2.30;;
74465;SDS011;62916;50.044;15.938;2023-03-21T05:59:51;7.70;;;2.80;;
74465;SDS011;62916;50.044;15.938;2023-03-21T06:02:22;5.00;;;2.70;;
74465;SDS011;62916;50.044;15.938;2023-03-21T06:04:52;6.20;;;2.60;;
74465;SDS011;62916;50.044;15.938;2023-03-21T06:07:24;8.80;;;2.50;;
74465;SDS011;62916;50.044;15.938;2023-03-21T06:09:55;5.70;;;2.90;;
74465;SDS011;62916;50.044;15.938;2023-03-21T06:12:26;9.30;;;2.90;;
74465;SDS011;62916;50.044;15.938;2023-03-21T06:14:57;5.50;;;3.20;;
74465;SDS011;62916;50.044;15.938;2023-03-21T06:17:28;6.30;;;3.00;;
74465;SDS011;62916;50.044;15.938;2023-03-21T06:19:59;5.30;;;2.60;;
74465;SDS011;62916;50.044;15.938;2023-03-21T06:22:31;5.20;;;2.10;;
74465;SDS011;62916;50.044;15.938;2023-03-21T06:25:04;7.50;;;2.30;;
74465;SDS011;62916;50.044;15.938;2023-03-21T06:27:37;3.90;;;2.40;;
74465;SDS011;62916;50.044;15.938;2023-03-21T06:30:08;4.20;;;2.30;;
74465;SDS011;62916;50.044;15.938;2023-03-21T06:32:40;6.50;;;2.50;;
74465;SDS011;62916;50.044;15.938;2023-03-21T06:35:10;5.00;;;2.50;;
74465;SDS011;62916;50.044;15.938;2023-03-21T06:37:42;4.50;;;2.20;;
74465;SDS011;62916;50.044;15.938;2023-03-21T06:40:17;5.20;;;2.30;;
74465;SDS011;62916;50.044;15.938;2023-03-21T06:42:48;3.40;;;2.50;;
74465;SDS011;62916;50.044;15.938;2023-03-21T06:45:19;6.50;;;2.50;;
74465;SDS011;62916;50.044;15.938;2023-03-21T06:47:50;7.70;;;2.70;;
74465;SDS011;62916;50.044;15.938;2023-03-21T06:50:21;3.20;;;2.50;;
74465;SDS011;62916;50.044;15.938;2023-03-21T06:52:52;4.60;;;2.50;;
74465;SDS011;62916;50.044;15.938;2023-03-21T06:55:24;3.50;;;2.40;;
74465;SDS011;62916;50.044;15.938;2023-03-21T06:57:55;4.40;;;2.10;;
74465;SDS011;62916;50.044;15.938;2023-03-21T07:00:27;5.50;;;2.50;;
74465;SDS011;62916;50.044;15.938;2023-03-21T07:02:58;4.30;;;2.50;;
74465;SDS011;62916;50.044;15.938;2023-03-21T07:05:29;2.50;;;2.00;;
74465;SDS011;62916;50.044;15.938;2023-03-21T07:08:00;4.20;;;2.60;;
74465;SDS011;62916;50.044;15.938;2023-03-21T07:10:31;2.50;;;1.80;;
74465;SDS011;62916;50.044;15.938;2023-03-21T07:13:02;4.20;;;2.00;;
74465;SDS011;62916;50.044;15.938;2023-03-21T07:15:32;2.40;;;1.70;;
74465;SDS011;62916;50.044;15.938;2023-03-21T07:18:06;2.80;;;1.90;;
74465;SDS011;62916;50.044;15.938;2023-03-21T07:20:37;3.80;;;2.30;;
74465;SDS011;62916;50.044;15.938;2023-03-21T07:23:08;2.90;;;1.80;;
74465;SDS011;62916;50.044;15.938;2023-03-21T07:25:39;3.00;;;1.90;;
74465;SDS011;62916;50.044;15.938;2023-03-21T07:28:10;2.80;;;2.60;;
74465;SDS011;62916;50.044;15.938;2023-03-21T07:30:40;2.60;;;2.40;;
74465;SDS011;62916;50.044;15.938;2023-03-21T07:33:11;2.70;;;1.90;;
74465;SDS011;62916;50.044;15.938;2023-03-21T07:35:42;2.90;;;2.10;;
74465;SDS011;62916;50.044;15.938;2023-03-21T07:38:13;2.30;;;2.10;;
74465;SDS011;62916;50.044;15.938;2023-03-21T07:40:44;3.00;;;1.80;;
74465;SDS011;62916;50.044;15.938;2023-03-21T07:43:16;2.90;;;2.20;;
74465;SDS011;62916;50.044;15.938;2023-03-21T07:45:47;2.30;;;1.80;;
74465;SDS011;62916;50.044;15.938;2023-03-21T07:48:18;2.20;;;1.80;;
74465;SDS011;62916;50.044;15.938;2023-03-21T07:50:49;2.10;;;1.90;;
74465;SDS011;62916;50.044;15.938;2023-03-21T07:53:20;3.10;;;1.90;;
74465;SDS011;62916;50.044;15.938;2023-03-21T07:55:51;2.50;;;1.70;;
74465;SDS011;62916;50.044;15.938;2023-03-21T07:58:23;2.00;;;1.70;;
74465;SDS011;62916;50.044;15.938;2023-03-21T08:00:55;2.20;;;1.60;;
74465;SDS011;62916;50.044;15.938;2023-03-21T08:03:28;3.00;;;2.20;;
74465;SDS011;62916;50.044;15.938;2023-03-21T08:06:00;2.00;;;1.70;;
74465;SDS011;62916;50.044;15.938;2023-03-21T08:08:31;2.20;;;2.00;;
74465;SDS011;62916;50.044;15.938;2023-03-21T08:11:03;3.00;;;1.70;;
74465;SDS011;62916;50.044;15.938;2023-03-21T08:13:35;2.50;;;2.00;;
74465;SDS011;62916;50.044;15.938;2023-03-21T08:16:06;3.50;;;2.00;;
74465;SDS011;62916;50.044;15.938;2023-03-21T08:18:38;1.80;;;1.60;;
74465;SDS011;62916;50.044;15.938;2023-03-21T08:21:09;2.20;;;2.00;;
74465;SDS011;62916;50.044;15.938;2023-03-21T08:23:40;1.90;;;1.70;;
74465;SDS011;62916;50.044;15.938;2023-03-21T08:26:11;2.30;;;1.80;;
74465;SDS011;62916;50.044;15.938;2023-03-21T08:28:45;2.80;;;2.00;;
74465;SDS011;62916;50.044;15.938;2023-03-21T08:31:15;2.40;;;1.40;;
74465;SDS011;62916;50.044;15.938;2023-03-21T08:33:48;2.80;;;2.20;;
74465;SDS011;62916;50.044;15.938;2023-03-21T08:36:21;2.10;;;1.90;;
74465;SDS011;62916;50.044;15.938;2023-03-21T08:38:52;3.60;;;2.50;;
74465;SDS011;62916;50.044;15.938;2023-03-21T08:41:31;2.90;;;1.90;;
74465;SDS011;62916;50.044;15.938;2023-03-21T08:44:04;2.40;;;2.00;;
74465;SDS011;62916;50.044;15.938;2023-03-21T08:46:36;2.00;;;1.70;;
74465;SDS011;62916;50.044;15.938;2023-03-21T08:49:07;2.40;;;1.90;;
74465;SDS011;62916;50.044;15.938;2023-03-21T08:51:39;1.90;;;1.70;;
74465;SDS011;62916;50.044;15.938;2023-03-21T08:54:18;1.60;;;1.50;;
74465;SDS011;62916;50.044;15.938;2023-03-21T08:56:50;2.20;;;2.00;;
74465;SDS011;62916;50.044;15.938;2023-03-21T08:59:20;2.10;;;1.90;;
74465;SDS011;62916;50.044;15.938;2023-03-21T09:01:51;2.70;;;2.00;;
74465;SDS011;62916;50.044;15.938;2023-03-21T09:04:22;3.20;;;1.80;;
74465;SDS011;62916;50.044;15.938;2023-03-21T09:06:54;2.60;;;2.40;;
74465;SDS011;62916;50.044;15.938;2023-03-21T09:09:24;2.10;;;1.50;;
74465;SDS011;62916;50.044;15.938;2023-03-21T09:11:55;2.50;;;2.00;;
74465;SDS011;62916;50.044;15.938;2023-03-21T09:14:26;3.20;;;2.20;;
74465;SDS011;62916;50.044;15.938;2023-03-21T09:16:57;2.20;;;1.80;;
74465;SDS011;62916;50.044;15.938;2023-03-21T09:19:28;2.10;;;1.90;;
74465;SDS011;62916;50.044;15.938;2023-03-21T09:21:59;2.20;;;2.00;;
74465;SDS011;62916;50.044;15.938;2023-03-21T09:24:30;2.00;;;1.80;;
74465;SDS011;62916;50.044;15.938;2023-03-21T09:27:01;2.20;;;2.00;;
74465;SDS011;62916;50.044;15.938;2023-03-21T09:29:32;2.50;;;1.90;;
74465;SDS011;62916;50.044;15.938;2023-03-21T09:32:03;2.40;;;2.20;;
74465;SDS011;62916;50.044;15.938;2023-03-21T09:34:35;2.20;;;1.90;;
74465;SDS011;62916;50.044;15.938;2023-03-21T09:37:06;2.30;;;1.90;;
74465;SDS011;62916;50.044;15.938;2023-03-21T09:39:40;2.10;;;1.80;;
74465;SDS011;62916;50.044;15.938;2023-03-21T09:42:18;2.20;;;2.00;;
74465;SDS011;62916;50.044;15.938;2023-03-21T09:45:03;2.40;;;2.00;;
74465;SDS011;62916;50.044;15.938;2023-03-21T09:47:41;2.50;;;1.70;;
74465;SDS011;62916;50.044;15.938;2023-03-21T09:50:21;2.00;;;1.60;;
74465;SDS011;62916;50.044;15.938;2023-03-21T09:52:55;2.00;;;1.70;;
74465;SDS011;62916;50.044;15.938;2023-03-21T09:55:28;4.30;;;2.00;;
74465;SDS011;62916;50.044;15.938;2023-03-21T10:00:35;2.70;;;1.80;;
74465;SDS011;62916;50.044;15.938;2023-03-21T10:03:11;2.30;;;1.90;;
74465;SDS011;62916;50.044;15.938;2023-03-21T10:05:51;2.20;;;2.00;;
74465;SDS011;62916;50.044;15.938;2023-03-21T10:08:25;2.20;;;1.80;;
74465;SDS011;62916;50.044;15.938;2023-03-21T10:11:05;2.30;;;1.90;;
74465;SDS011;62916;50.044;15.938;2023-03-21T10:13:41;2.70;;;2.10;;
74465;SDS011;62916;50.044;15.938;2023-03-21T10:16:16;2.00;;;1.90;;
74465;SDS011;62916;50.044;15.938;2023-03-21T10:18:53;2.10;;;1.90;;
74465;SDS011;62916;50.044;15.938;2023-03-21T10:21:26;3.10;;;2.70;;
74465;SDS011;62916;50.044;15.938;2023-03-21T10:24:19;1.70;;;1.50;;
74465;SDS011;62916;50.044;15.938;2023-03-21T10:26:52;2.50;;;2.00;;
74465;SDS011;62916;50.044;15.938;2023-03-21T10:29:25;2.30;;;1.90;;
74465;SDS011;62916;50.044;15.938;2023-03-21T10:32:00;3.40;;;2.50;;
74465;SDS011;62916;50.044;15.938;2023-03-21T10:34:34;3.30;;;2.40;;
74465;SDS011;62916;50.044;15.938;2023-03-21T10:37:09;2.20;;;1.90;;
74465;SDS011;62916;50.044;15.938;2023-03-21T10:39:42;2.00;;;1.90;;
74465;SDS011;62916;50.044;15.938;2023-03-21T10:42:19;2.00;;;1.70;;
74465;SDS011;62916;50.044;15.938;2023-03-21T10:44:52;2.90;;;2.10;;
74465;SDS011;62916;50.044;15.938;2023-03-21T10:47:25;2.30;;;1.80;;
74465;SDS011;62916;50.044;15.938;2023-03-21T10:50:01;2.30;;;2.00;;
74465;SDS011;62916;50.044;15.938;2023-03-21T10:52:36;2.50;;;2.20;;
74465;SDS011;62916;50.044;15.938;2023-03-21T10:55:16;2.40;;;2.10;;
74465;SDS011;62916;50.044;15.938;2023-03-21T10:57:53;2.50;;;2.00;;
74465;SDS011;62916;50.044;15.938;2023-03-21T11:00:28;3.10;;;2.00;;
74465;SDS011;62916;50.044;15.938;2023-03-21T11:03:03;2.70;;;1.90;;
74465;SDS011;62916;50.044;15.938;2023-03-21T11:05:35;1.70;;;1.60;;
74465;SDS011;62916;50.044;15.938;2023-03-21T11:08:11;2.60;;;2.00;;
74465;SDS011;62916;50.044;15.938;2023-03-21T11:10:53;2.30;;;2.10;;
74465;SDS011;62916;50.044;15.938;2023-03-21T11:13:35;2.80;;;2.10;;
74465;SDS011;62916;50.044;15.938;2023-03-21T11:16:09;2.50;;;2.20;;
74465;SDS011;62916;50.044;15.938;2023-03-21T11:18:50;2.40;;;1.70;;
74465;SDS011;62916;50.044;15.938;2023-03-21T11:21:24;1.90;;;1.80;;
74465;SDS011;62916;50.044;15.938;2023-03-21T11:23:56;2.50;;;2.00;;
74465;SDS011;62916;50.044;15.938;2023-03-21T11:26:29;2.70;;;2.50;;
74465;SDS011;62916;50.044;15.938;2023-03-21T11:29:09;2.10;;;1.90;;
74465;SDS011;62916;50.044;15.938;2023-03-21T11:31:47;2.80;;;2.10;;
74465;SDS011;62916;50.044;15.938;2023-03-21T11:34:25;2.60;;;2.20;;
74465;SDS011;62916;50.044;15.938;2023-03-21T11:37:00;1.80;;;1.70;;
74465;SDS011;62916;50.044;15.938;2023-03-21T11:39:32;2.90;;;2.10;;
74465;SDS011;62916;50.044;15.938;2023-03-21T11:42:23;1.80;;;1.60;;
74465;SDS011;62916;50.044;15.938;2023-03-21T11:45:03;2.20;;;1.80;;
74465;SDS011;62916;50.044;15.938;2023-03-21T11:47:41;1.80;;;1.70;;
74465;SDS011;62916;50.044;15.938;2023-03-21T11:50:19;2.40;;;2.20;;
74465;SDS011;62916;50.044;15.938;2023-03-21T11:53:00;2.10;;;1.90;;
74465;SDS011;62916;50.044;15.938;2023-03-21T11:55:49;2.20;;;1.90;;
74465;SDS011;62916;50.044;15.938;2023-03-21T11:58:33;1.90;;;1.80;;
74465;SDS011;62916;50.044;15.938;2023-03-21T12:01:14;2.30;;;2.10;;
74465;SDS011;62916;50.044;15.938;2023-03-21T12:04:04;1.70;;;1.40;;
74465;SDS011;62916;50.044;15.938;2023-03-21T12:06:46;2.00;;;1.80;;
74465;SDS011;62916;50.044;15.938;2023-03-21T12:09:24;2.70;;;1.80;;
74465;SDS011;62916;50.044;15.938;2023-03-21T12:12:20;2.00;;;1.80;;
74465;SDS011;62916;50.044;15.938;2023-03-21T12:15:08;2.40;;;2.10;;
74465;SDS011;62916;50.044;15.938;2023-03-21T12:17:47;2.30;;;1.80;;
74465;SDS011;62916;50.044;15.938;2023-03-21T12:20:35;1.90;;;1.80;;
74465;SDS011;62916;50.044;15.938;2023-03-21T12:26:09;2.20;;;2.00;;
74465;SDS011;62916;50.044;15.938;2023-03-21T12:28:50;2.30;;;1.80;;
74465;SDS011;62916;50.044;15.938;2023-03-21T12:31:34;2.50;;;1.90;;
74465;SDS011;62916;50.044;15.938;2023-03-21T12:34:21;2.30;;;2.10;;
74465;SDS011;62916;50.044;15.938;2023-03-21T12:37:13;2.30;;;1.80;;
74465;SDS011;62916;50.044;15.938;2023-03-21T12:39:51;2.00;;;1.80;;
74465;SDS011;62916;50.044;15.938;2023-03-21T12:42:39;1.90;;;1.70;;
74465;SDS011;62916;50.044;15.938;2023-03-21T12:45:21;2.00;;;1.70;;
74465;SDS011;62916;50.044;15.938;2023-03-21T12:48:14;1.90;;;1.70;;
74465;SDS011;62916;50.044;15.938;2023-03-21T12:53:27;2.10;;;1.90;;
74465;SDS011;62916;50.044;15.938;2023-03-21T12:56:06;2.70;;;2.50;;
74465;SDS011;62916;50.044;15.938;2023-03-21T12:58:44;1.60;;;1.50;;
74465;SDS011;62916;50.044;15.938;2023-03-21T13:01:20;2.00;;;1.80;;
74465;SDS011;62916;50.044;15.938;2023-03-21T13:04:03;2.70;;;2.00;;
74465;SDS011;62916;50.044;15.938;2023-03-21T13:06:44;2.10;;;1.90;;
74465;SDS011;62916;50.044;15.938;2023-03-21T13:09:19;1.60;;;1.50;;
74465;SDS011;62916;50.044;15.938;2023-03-21T13:14:43;2.20;;;1.90;;
74465;SDS011;62916;50.044;15.938;2023-03-21T13:17:23;2.10;;;1.90;;
74465;SDS011;62916;50.044;15.938;2023-03-21T13:20:06;2.70;;;2.00;;
74465;SDS011;62916;50.044;15.938;2023-03-21T13:22:47;1.90;;;1.60;;
74465;SDS011;62916;50.044;15.938;2023-03-21T13:25:18;2.10;;;1.90;;
74465;SDS011;62916;50.044;15.938;2023-03-21T13:27:52;2.20;;;2.00;;
74465;SDS011;62916;50.044;15.938;2023-03-21T13:30:29;2.40;;;1.60;;
74465;SDS011;62916;50.044;15.938;2023-03-21T13:33:05;2.30;;;2.10;;
74465;SDS011;62916;50.044;15.938;2023-03-21T13:35:41;2.10;;;1.80;;
74465;SDS011;62916;50.044;15.938;2023-03-21T13:38:14;2.20;;;1.90;;
74465;SDS011;62916;50.044;15.938;2023-03-21T13:40:49;2.00;;;1.80;;
74465;SDS011;62916;50.044;15.938;2023-03-21T13:43:32;1.80;;;1.70;;
74465;SDS011;62916;50.044;15.938;2023-03-21T13:46:10;1.90;;;1.70;;
74465;SDS011;62916;50.044;15.938;2023-03-21T13:48:44;2.00;;;1.80;;
74465;SDS011;62916;50.044;15.938;2023-03-21T13:51:42;1.80;;;1.70;;
74465;SDS011;62916;50.044;15.938;2023-03-21T13:54:20;2.10;;;1.90;;
74465;SDS011;62916;50.044;15.938;2023-03-21T13:56:58;2.40;;;1.60;;
74465;SDS011;62916;50.044;15.938;2023-03-21T13:59:36;2.20;;;1.70;;
74465;SDS011;62916;50.044;15.938;2023-03-21T14:05:01;2.80;;;1.70;;
74465;SDS011;62916;50.044;15.938;2023-03-21T14:07:35;1.80;;;1.60;;
74465;SDS011;62916;50.044;15.938;2023-03-21T14:10:15;2.20;;;2.10;;
74465;SDS011;62916;50.044;15.938;2023-03-21T14:12:50;2.10;;;1.70;;
74465;SDS011;62916;50.044;15.938;2023-03-21T14:15:22;1.90;;;1.80;;
74465;SDS011;62916;50.044;15.938;2023-03-21T14:17:55;2.40;;;2.20;;
74465;SDS011;62916;50.044;15.938;2023-03-21T14:20:52;2.20;;;2.00;;
74465;SDS011;62916;50.044;15.938;2023-03-21T14:23:24;2.10;;;1.90;;
74465;SDS011;62916;50.044;15.938;2023-03-21T14:25:55;2.50;;;2.30;;
74465;SDS011;62916;50.044;15.938;2023-03-21T14:28:27;1.90;;;1.80;;
74465;SDS011;62916;50.044;15.938;2023-03-21T14:31:00;2.10;;;1.80;;
74465;SDS011;62916;50.044;15.938;2023-03-21T14:33:31;2.10;;;1.90;;
74465;SDS011;62916;50.044;15.938;2023-03-21T14:36:09;8.10;;;2.40;;
74465;SDS011;62916;50.044;15.938;2023-03-21T14:38:42;6.50;;;2.40;;
74465;SDS011;62916;50.044;15.938;2023-03-21T14:41:22;8.60;;;2.40;;
74465;SDS011;62916;50.044;15.938;2023-03-21T14:44:01;10.20;;;3.30;;
74465;SDS011;62916;50.044;15.938;2023-03-21T14:46:51;11.50;;;3.10;;
74465;SDS011;62916;50.044;15.938;2023-03-21T14:49:28;7.50;;;3.60;;
74465;SDS011;62916;50.044;15.938;2023-03-21T14:52:00;13.00;;;3.10;;
74465;SDS011;62916;50.044;15.938;2023-03-21T14:54:33;11.60;;;3.30;;
74465;SDS011;62916;50.044;15.938;2023-03-21T14:57:09;14.00;;;3.00;;
74465;SDS011;62916;50.044;15.938;2023-03-21T14:59:43;14.40;;;3.10;;
74465;SDS011;62916;50.044;15.938;2023-03-21T15:02:19;9.70;;;3.40;;
74465;SDS011;62916;50.044;15.938;2023-03-21T15:04:54;10.60;;;3.70;;
74465;SDS011;62916;50.044;15.938;2023-03-21T15:07:33;8.10;;;3.50;;
74465;SDS011;62916;50.044;15.938;2023-03-21T15:10:07;13.10;;;2.90;;
74465;SDS011;62916;50.044;15.938;2023-03-21T15:12:49;7.80;;;3.10;;
74465;SDS011;62916;50.044;15.938;2023-03-21T15:15:22;6.50;;;2.70;;
74465;SDS011;62916;50.044;15.938;2023-03-21T15:17:55;7.70;;;3.30;;
74465;SDS011;62916;50.044;15.938;2023-03-21T15:20:30;7.30;;;2.90;;
74465;SDS011;62916;50.044;15.938;2023-03-21T15:23:03;5.00;;;2.70;;
74465;SDS011;62916;50.044;15.938;2023-03-21T15:25:40;6.90;;;3.00;;
74465;SDS011;62916;50.044;15.938;2023-03-21T15:28:13;5.30;;;2.50;;
74465;SDS011;62916;50.044;15.938;2023-03-21T15:30:47;7.20;;;2.50;;
74465;SDS011;62916;50.044;15.938;2023-03-21T15:33:22;5.20;;;2.70;;
74465;SDS011;62916;50.044;15.938;2023-03-21T15:38:28;6.50;;;2.70;;
74465;SDS011;62916;50.044;15.938;2023-03-21T15:41:14;6.40;;;2.50;;
74465;SDS011;62916;50.044;15.938;2023-03-21T15:43:59;3.90;;;2.50;;
74465;SDS011;62916;50.044;15.938;2023-03-21T15:46:37;4.00;;;2.90;;
74465;SDS011;62916;50.044;15.938;2023-03-21T15:49:16;6.00;;;3.20;;
74465;SDS011;62916;50.044;15.938;2023-03-21T15:51:52;3.60;;;2.10;;
74465;SDS011;62916;50.044;15.938;2023-03-21T15:54:28;4.40;;;2.20;;